Time;durP1;ratioP1;P1;durP2;ratioP2;P2;SDS_P1;SDS_P2;PMS_P1;PMS_P2;Temp;Humidity;BMP_temperature;BMP_pressure;BME280_temperature;BME280_humidity;BME280_pressure;Samples;Min_cycle;Max_cycle;Signal;HPM_P1;HPM_P2
2022/11/13 00:01:53;;;;;;;19.08;9.23;;;;;;;;;;4990451;28;20049;-67
2022/11/13 00:04:18;;;;;;;16.52;9.38;;;;;;;;;;4986141;28;20026;-67
2022/11/13 00:06:43;;;;;;;20.17;10.30;;;;;;;;;;4984024;28;20032;-67
2022/11/13 00:09:10;;;;;;;18.97;9.90;;;;;;;;;;4988206;28;20292;-66
2022/11/13 00:11:35;;;;;;;21.65;10.07;;;;;;;;;;4982555;28;20274;-66
2022/11/13 00:14:00;;;;;;;17.17;9.55;;;;;;;;;;4986158;28;20034;-67
2022/11/13 00:16:25;;;;;;;20.37;10.40;;;;;;;;;;4980519;28;20349;-67
2022/11/13 00:18:51;;;;;;;23.53;10.80;;;;;;;;;;4991763;28;20352;-66
2022/11/13 00:21:17;;;;;;;22.27;10.13;;;;;;;;;;4979857;28;20596;-67
2022/11/13 00:23:43;;;;;;;15.90;9.00;;;;;;;;;;4991572;28;20018;-67
2022/11/13 00:26:10;;;;;;;20.92;9.88;;;;;;;;;;4986086;28;20542;-67
2022/11/13 00:28:35;;;;;;;15.23;8.52;;;;;;;;;;4988498;28;20468;-67
2022/11/13 00:31:01;;;;;;;17.08;8.75;;;;;;;;;;4982505;28;20033;-67
2022/11/13 00:33:26;;;;;;;20.00;10.02;;;;;;;;;;4992509;28;20015;-68
2022/11/13 00:35:51;;;;;;;16.50;9.65;;;;;;;;;;4984559;28;20118;-67
2022/11/13 00:38:16;;;;;;;21.10;9.25;;;;;;;;;;4991594;28;20026;-67
2022/11/13 00:40:42;;;;;;;16.33;9.15;;;;;;;;;;4984273;28;20032;-67
2022/11/13 00:43:07;;;;;;;19.40;9.70;;;;;;;;;;4991650;28;20097;-67
2022/11/13 00:45:32;;;;;;;21.37;9.37;;;;;;;;;;4986374;28;20296;-67
2022/11/13 00:47:57;;;;;;;20.37;10.00;;;;;;;;;;4989177;28;20675;-67
2022/11/13 00:50:22;;;;;;;17.83;9.27;;;;;;;;;;4989239;28;20336;-66
2022/11/13 00:52:47;;;;;;;20.33;8.80;;;;;;;;;;4988652;28;20022;-67
2022/11/13 00:55:13;;;;;;;17.43;8.67;;;;;;;;;;4990561;28;20471;-67
2022/11/13 00:57:38;;;;;;;18.67;9.05;;;;;;;;;;4990869;28;20277;-67
2022/11/13 01:00:03;;;;;;;15.25;8.55;;;;;;;;;;4988699;28;20387;-67
2022/11/13 01:02:29;;;;;;;15.02;7.97;;;;;;;;;;4987899;28;21551;-68
2022/11/13 01:04:54;;;;;;;19.97;8.57;;;;;;;;;;4986917;28;20380;-67
2022/11/13 01:07:19;;;;;;;12.13;7.27;;;;;;;;;;4983503;28;20401;-67
2022/11/13 01:09:48;;;;;;;21.38;7.57;;;;;;;;;;4981661;28;20269;-67
2022/11/13 01:12:13;;;;;;;14.85;6.72;;;;;;;;;;4980182;28;20023;-66
2022/11/13 01:14:38;;;;;;;17.20;6.60;;;;;;;;;;4986462;28;20140;-67
2022/11/13 01:17:03;;;;;;;13.93;7.43;;;;;;;;;;4988504;28;20133;-67
2022/11/13 01:19:29;;;;;;;14.85;7.50;;;;;;;;;;4988858;28;20273;-66
2022/11/13 01:21:54;;;;;;;17.63;7.00;;;;;;;;;;4988586;28;20403;-66
2022/11/13 01:24:19;;;;;;;16.90;7.17;;;;;;;;;;4983878;28;20286;-67
2022/11/13 01:26:44;;;;;;;15.00;6.28;;;;;;;;;;4984624;28;20323;-67
2022/11/13 01:29:11;;;;;;;14.05;6.75;;;;;;;;;;4984025;28;20526;-67
2022/11/13 01:31:36;;;;;;;17.17;7.38;;;;;;;;;;4984392;28;20527;-66
2022/11/13 01:34:01;;;;;;;14.80;7.30;;;;;;;;;;4989455;28;20145;-67
2022/11/13 01:36:27;;;;;;;12.20;7.57;;;;;;;;;;4989999;28;20561;-65
2022/11/13 01:38:52;;;;;;;12.57;6.22;;;;;;;;;;4984100;28;20022;-67
2022/11/13 01:41:19;;;;;;;17.08;8.45;;;;;;;;;;4988613;28;20522;-67
2022/11/13 01:43:44;;;;;;;15.75;7.70;;;;;;;;;;4990076;28;20022;-67
2022/11/13 01:46:13;;;;;;;15.98;7.38;;;;;;;;;;4988296;28;20034;-67
2022/11/13 01:48:41;;;;;;;19.02;7.68;;;;;;;;;;4987716;28;20018;-67
2022/11/13 01:51:26;;;;;;;19.40;7.13;;;;;;;;;;4984340;28;20050;-67
2022/11/13 01:53:51;;;;;;;15.25;7.53;;;;;;;;;;4985720;28;20043;-67
2022/11/13 01:56:17;;;;;;;14.55;7.10;;;;;;;;;;4989909;28;20049;-66
2022/11/13 01:58:45;;;;;;;13.98;6.68;;;;;;;;;;4982130;28;20116;-67
2022/11/13 02:01:10;;;;;;;12.77;6.72;;;;;;;;;;4984428;28;20146;-66
2022/11/13 02:03:35;;;;;;;13.13;6.55;;;;;;;;;;4982913;28;20504;-66
2022/11/13 02:06:01;;;;;;;12.75;6.60;;;;;;;;;;4988447;28;20029;-66
2022/11/13 02:08:26;;;;;;;14.82;6.65;;;;;;;;;;4980675;28;20026;-66
2022/11/13 02:10:51;;;;;;;14.82;6.50;;;;;;;;;;4988761;28;20088;-66
2022/11/13 02:13:17;;;;;;;11.82;6.05;;;;;;;;;;4984625;28;20115;-66
2022/11/13 02:15:43;;;;;;;14.77;6.78;;;;;;;;;;4982074;28;20029;-66
2022/11/13 02:18:09;;;;;;;14.05;6.65;;;;;;;;;;4987355;28;20298;-67
2022/11/13 02:20:35;;;;;;;14.65;7.72;;;;;;;;;;4991136;28;20053;-66
2022/11/13 02:23:15;;;;;;;15.85;8.27;;;;;;;;;;4985060;28;20053;-67
2022/11/13 02:25:40;;;;;;;;;;;;;;;;;;4984809;28;20782;-67
2022/11/13 02:28:05;;;;;;;13.20;6.70;;;;;;;;;;4988565;28;20417;-66
2022/11/13 02:30:32;;;;;;;13.73;6.57;;;;;;;;;;4999652;28;20015;-67
2022/11/13 02:32:58;;;;;;;18.88;6.15;;;;;;;;;;4993620;28;20332;-66
2022/11/13 02:35:25;;;;;;;13.35;6.32;;;;;;;;;;4997923;28;20426;-66
2022/11/13 02:37:50;;;;;;;15.20;7.10;;;;;;;;;;4986916;28;20143;-67
2022/11/13 02:40:16;;;;;;;11.32;6.05;;;;;;;;;;4992066;28;20054;-66
2022/11/13 02:42:41;;;;;;;15.00;6.40;;;;;;;;;;4990488;28;20073;-67
2022/11/13 02:45:06;;;;;;;12.95;6.47;;;;;;;;;;4995054;28;20045;-66
2022/11/13 02:47:32;;;;;;;16.13;6.60;;;;;;;;;;4993621;28;20023;-66
2022/11/13 02:49:57;;;;;;;11.85;6.05;;;;;;;;;;4996674;28;20052;-66
2022/11/13 02:52:22;;;;;;;14.73;5.90;;;;;;;;;;4993753;28;20089;-66
2022/11/13 02:54:47;;;;;;;10.13;5.70;;;;;;;;;;4989916;28;20042;-66
2022/11/13 02:57:12;;;;;;;13.00;5.47;;;;;;;;;;4994257;28;20530;-66
2022/11/13 02:59:38;;;;;;;8.60;5.07;;;;;;;;;;4994603;28;20284;-67
2022/11/13 03:02:03;;;;;;;9.57;5.10;;;;;;;;;;4997811;28;20738;-67
2022/11/13 03:04:28;;;;;;;11.10;5.60;;;;;;;;;;4987538;28;20030;-67
2022/11/13 03:06:53;;;;;;;11.40;4.90;;;;;;;;;;4986502;28;20022;-66
2022/11/13 03:09:18;;;;;;;12.10;4.50;;;;;;;;;;4990822;28;20457;-66
2022/11/13 03:11:43;;;;;;;11.68;5.38;;;;;;;;;;4996847;28;20312;-66
2022/11/13 03:14:09;;;;;;;8.43;4.90;;;;;;;;;;4989929;28;20483;-66
2022/11/13 03:16:34;;;;;;;9.95;5.30;;;;;;;;;;4994348;28;20264;-66
2022/11/13 03:19:00;;;;;;;11.60;5.18;;;;;;;;;;4994220;28;20029;-67
2022/11/13 03:21:25;;;;;;;10.48;5.15;;;;;;;;;;4991044;28;20029;-66
2022/11/13 03:23:50;;;;;;;8.25;4.57;;;;;;;;;;4986295;28;20022;-67
2022/11/13 03:26:16;;;;;;;10.80;5.13;;;;;;;;;;4992003;28;20403;-67
2022/11/13 03:28:41;;;;;;;8.77;4.47;;;;;;;;;;4994407;28;20280;-67
2022/11/13 03:31:07;;;;;;;10.13;5.03;;;;;;;;;;4995166;28;20030;-67
2022/11/13 03:33:32;;;;;;;7.90;4.50;;;;;;;;;;4986997;28;20081;-67
2022/11/13 03:35:57;;;;;;;11.05;4.75;;;;;;;;;;4993248;28;20033;-67
2022/11/13 03:38:22;;;;;;;10.15;4.90;;;;;;;;;;4985953;28;20026;-67
2022/11/13 03:40:48;;;;;;;10.98;4.53;;;;;;;;;;4991763;28;20037;-67
2022/11/13 03:43:13;;;;;;;9.55;4.45;;;;;;;;;;4988285;28;20548;-67
2022/11/13 03:45:39;;;;;;;9.88;4.78;;;;;;;;;;4990202;28;20508;-67
2022/11/13 03:48:04;;;;;;;9.95;3.78;;;;;;;;;;4991892;28;20050;-67
2022/11/13 03:50:29;;;;;;;11.50;4.20;;;;;;;;;;4987791;28;20026;-67
2022/11/13 03:52:55;;;;;;;9.05;4.13;;;;;;;;;;4981929;28;20054;-67
2022/11/13 03:55:20;;;;;;;9.40;3.83;;;;;;;;;;4991524;28;20031;-67
2022/11/13 03:57:45;;;;;;;10.90;4.30;;;;;;;;;;4992749;28;20471;-67
2022/11/13 04:00:11;;;;;;;10.77;4.60;;;;;;;;;;4990437;28;20353;-67
2022/11/13 04:02:36;;;;;;;6.57;3.78;;;;;;;;;;4987573;28;20060;-65
2022/11/13 04:05:01;;;;;;;10.63;4.13;;;;;;;;;;4988783;28;20079;-64
2022/11/13 04:07:26;;;;;;;6.67;3.60;;;;;;;;;;4993346;28;20383;-67
2022/11/13 04:09:51;;;;;;;7.25;4.00;;;;;;;;;;4989654;28;20361;-67
2022/11/13 04:12:17;;;;;;;9.33;3.60;;;;;;;;;;4993190;28;20014;-65
2022/11/13 04:14:42;;;;;;;6.60;3.73;;;;;;;;;;4991716;28;20289;-65
2022/11/13 04:17:07;;;;;;;6.63;3.58;;;;;;;;;;4994509;28;20621;-65
2022/11/13 04:19:32;;;;;;;7.35;3.17;;;;;;;;;;4988632;28;20398;-66
2022/11/13 04:21:57;;;;;;;6.97;3.17;;;;;;;;;;4983166;28;20486;-67
2022/11/13 04:24:22;;;;;;;10.20;3.00;;;;;;;;;;4989536;28;20296;-66
2022/11/13 04:26:48;;;;;;;9.98;3.53;;;;;;;;;;4991473;28;20761;-67
2022/11/13 04:29:13;;;;;;;11.10;4.03;;;;;;;;;;4988094;28;20030;-67
2022/11/13 04:31:38;;;;;;;6.83;3.90;;;;;;;;;;4989668;28;20339;-68
2022/11/13 04:34:03;;;;;;;8.80;3.67;;;;;;;;;;4990309;28;20285;-67
2022/11/13 04:36:28;;;;;;;6.57;3.00;;;;;;;;;;4985355;28;20266;-68
2022/11/13 04:38:53;;;;;;;9.38;3.58;;;;;;;;;;4990227;28;20316;-65
2022/11/13 04:44:02;;;;;;;5.70;3.03;;;;;;;;;;4985036;28;20719;-66
2022/11/13 04:46:27;;;;;;;8.60;3.33;;;;;;;;;;4990791;28;20030;-67
2022/11/13 04:48:53;;;;;;;10.10;3.57;;;;;;;;;;4985041;28;20026;-66
2022/11/13 04:51:18;;;;;;;6.13;3.33;;;;;;;;;;4991377;28;20277;-66
2022/11/13 04:53:43;;;;;;;7.38;3.45;;;;;;;;;;4989984;28;20018;-66
2022/11/13 04:56:08;;;;;;;5.78;3.72;;;;;;;;;;4990716;28;20026;-65
2022/11/13 04:58:33;;;;;;;8.75;3.80;;;;;;;;;;4986194;28;20113;-66
2022/11/13 05:00:59;;;;;;;5.75;2.85;;;;;;;;;;4985400;28;20506;-66
2022/11/13 05:03:24;;;;;;;7.17;3.20;;;;;;;;;;4988002;28;20444;-66
2022/11/13 05:05:49;;;;;;;4.73;2.70;;;;;;;;;;4989389;28;20298;-66
2022/11/13 05:08:14;;;;;;;6.73;3.50;;;;;;;;;;4982666;28;20250;-65
2022/11/13 05:10:40;;;;;;;5.60;3.30;;;;;;;;;;4989497;28;20375;-66
2022/11/13 05:13:05;;;;;;;8.77;2.88;;;;;;;;;;4990894;28;20015;-66
2022/11/13 05:15:30;;;;;;;6.60;3.10;;;;;;;;;;4988533;28;20040;-66
2022/11/13 05:17:55;;;;;;;8.00;3.57;;;;;;;;;;5108778;22;20383;-69
2022/11/13 05:20:20;;;;;;;6.07;3.33;;;;;;;;;;4989680;28;20297;-68
2022/11/13 05:22:46;;;;;;;5.97;2.90;;;;;;;;;;4990150;28;20026;-69
2022/11/13 05:25:11;;;;;;;5.95;2.72;;;;;;;;;;4990341;28;20665;-68
2022/11/13 05:27:36;;;;;;;4.63;2.50;;;;;;;;;;4982360;28;20037;-69
2022/11/13 05:30:01;;;;;;;6.13;3.33;;;;;;;;;;4984161;28;20663;-68
2022/11/13 05:32:27;;;;;;;6.07;3.03;;;;;;;;;;4985688;28;20279;-68
2022/11/13 05:34:52;;;;;;;14.20;4.03;;;;;;;;;;4989558;28;20022;-68
2022/11/13 05:37:17;;;;;;;7.85;3.05;;;;;;;;;;4988251;28;20273;-69
2022/11/13 05:39:42;;;;;;;11.57;3.47;;;;;;;;;;4990112;28;20029;-68
2022/11/13 05:42:07;;;;;;;7.57;3.67;;;;;;;;;;4990314;28;20611;-68
2022/11/13 05:44:33;;;;;;;8.45;2.90;;;;;;;;;;4988265;28;20052;-68
2022/11/13 05:46:58;;;;;;;8.10;3.95;;;;;;;;;;4985286;28;20015;-69
2022/11/13 05:49:23;;;;;;;5.82;3.40;;;;;;;;;;4990406;28;20018;-69
2022/11/13 05:51:48;;;;;;;9.00;3.40;;;;;;;;;;4982364;28;20022;-68
2022/11/13 05:54:13;;;;;;;6.97;3.10;;;;;;;;;;4978725;28;20054;-68
2022/11/13 05:56:39;;;;;;;5.65;3.05;;;;;;;;;;4980599;28;20034;-68
2022/11/13 05:59:04;;;;;;;8.20;3.13;;;;;;;;;;4981676;28;20041;-69
2022/11/13 06:01:31;;;;;;;5.35;2.97;;;;;;;;;;4980236;28;20068;-68
2022/11/13 06:03:57;;;;;;;5.05;2.97;;;;;;;;;;4981874;28;20372;-68
2022/11/13 06:06:23;;;;;;;8.32;3.97;;;;;;;;;;4989448;28;20038;-68
2022/11/13 06:08:49;;;;;;;8.90;3.42;;;;;;;;;;4986043;28;20070;-68
2022/11/13 06:11:21;;;;;;;9.60;3.78;;;;;;;;;;4984607;28;20120;-68
2022/11/13 06:13:47;;;;;;;5.13;2.80;;;;;;;;;;4985639;28;20096;-68
2022/11/13 06:16:15;;;;;;;5.68;2.58;;;;;;;;;;4987944;28;20030;-68
2022/11/13 06:18:41;;;;;;;6.32;2.85;;;;;;;;;;4987668;28;20029;-68
2022/11/13 06:21:17;;;;;;;5.22;2.80;;;;;;;;;;4988816;28;20027;-68
2022/11/13 06:23:43;;;;;;;7.25;3.10;;;;;;;;;;4983245;28;20482;-68
2022/11/13 06:26:18;;;;;;;8.48;3.22;;;;;;;;;;4979090;28;20029;-68
2022/11/13 06:28:44;;;;;;;6.50;3.50;;;;;;;;;;4982714;28;20026;-68
2022/11/13 06:31:14;;;;;;;6.10;2.90;;;;;;;;;;4980933;28;20030;-68
2022/11/13 06:33:40;;;;;;;8.68;3.45;;;;;;;;;;4988434;28;20011;-68
2022/11/13 06:36:06;;;;;;;4.57;2.75;;;;;;;;;;4989659;28;20035;-67
2022/11/13 06:38:32;;;;;;;9.00;3.22;;;;;;;;;;4980727;28;20042;-69
2022/11/13 06:40:57;;;;;;;7.25;3.95;;;;;;;;;;4985041;28;20019;-73
2022/11/13 06:43:23;;;;;;;4.65;2.53;;;;;;;;;;4987743;28;20569;-67
2022/11/13 06:45:48;;;;;;;6.50;2.83;;;;;;;;;;4990373;28;20026;-69
2022/11/13 06:48:13;;;;;;;5.07;2.97;;;;;;;;;;4984611;28;20027;-67
2022/11/13 06:50:38;;;;;;;7.45;3.22;;;;;;;;;;4983829;28;20266;-68
2022/11/13 06:53:03;;;;;;;6.13;3.90;;;;;;;;;;4979498;28;20118;-69
2022/11/13 06:55:28;;;;;;;5.63;3.10;;;;;;;;;;4978821;28;20402;-67
2022/11/13 06:57:54;;;;;;;11.15;2.92;;;;;;;;;;4976971;28;20030;-67
2022/11/13 07:00:19;;;;;;;8.68;2.90;;;;;;;;;;4977300;28;20070;-68
2022/11/13 07:02:47;;;;;;;5.07;2.83;;;;;;;;;;4983153;28;20454;-70
2022/11/13 07:05:12;;;;;;;6.68;2.88;;;;;;;;;;4979890;28;20031;-66
2022/11/13 07:07:37;;;;;;;9.25;2.70;;;;;;;;;;4982719;28;20044;-67
2022/11/13 07:10:02;;;;;;;6.53;3.10;;;;;;;;;;4981784;28;20030;-67
2022/11/13 07:12:27;;;;;;;5.10;2.60;;;;;;;;;;4984694;28;20100;-71
2022/11/13 07:14:53;;;;;;;6.63;2.63;;;;;;;;;;4983082;28;20023;-67
2022/11/13 07:17:18;;;;;;;8.30;3.05;;;;;;;;;;4989875;28;20386;-67
2022/11/13 07:19:43;;;;;;;8.05;3.22;;;;;;;;;;4987587;28;20041;-70
2022/11/13 07:22:08;;;;;;;8.17;3.60;;;;;;;;;;4989511;28;20061;-68
2022/11/13 07:24:33;;;;;;;5.63;2.97;;;;;;;;;;4987062;28;20825;-69
2022/11/13 07:26:59;;;;;;;4.77;2.93;;;;;;;;;;4983519;28;20014;-68
2022/11/13 07:29:24;;;;;;;7.80;3.03;;;;;;;;;;4988702;28;20308;-68
2022/11/13 07:31:49;;;;;;;6.32;3.25;;;;;;;;;;4981945;28;20289;-68
2022/11/13 07:34:14;;;;;;;3.90;2.60;;;;;;;;;;4985948;28;20422;-68
2022/11/13 07:36:39;;;;;;;9.23;3.05;;;;;;;;;;4987246;28;20067;-69
2022/11/13 07:39:05;;;;;;;9.40;2.50;;;;;;;;;;4988881;28;20040;-68
2022/11/13 07:41:30;;;;;;;5.18;2.85;;;;;;;;;;4987292;28;20615;-68
2022/11/13 07:43:55;;;;;;;5.10;2.55;;;;;;;;;;4991151;28;20022;-68
2022/11/13 07:46:20;;;;;;;5.63;2.70;;;;;;;;;;4988318;28;20101;-69
2022/11/13 07:48:45;;;;;;;12.43;4.50;;;;;;;;;;4989823;28;20274;-69
2022/11/13 07:51:11;;;;;;;8.87;2.93;;;;;;;;;;4988709;28;20320;-68
2022/11/13 07:53:37;;;;;;;6.15;3.08;;;;;;;;;;4988222;28;20281;-68
2022/11/13 07:56:03;;;;;;;6.40;3.10;;;;;;;;;;4989570;28;20026;-69
2022/11/13 07:58:29;;;;;;;6.15;3.13;;;;;;;;;;4982532;28;20491;-69
2022/11/13 08:00:54;;;;;;;12.63;3.63;;;;;;;;;;4986013;28;20926;-68
2022/11/13 08:03:19;;;;;;;7.37;3.03;;;;;;;;;;4987481;28;20038;-68
2022/11/13 08:05:44;;;;;;;5.20;2.63;;;;;;;;;;4987737;28;20281;-68
2022/11/13 08:08:13;;;;;;;7.77;3.10;;;;;;;;;;4988250;28;20335;-68
2022/11/13 08:10:38;;;;;;;7.47;3.33;;;;;;;;;;4987141;28;20355;-68
2022/11/13 08:13:05;;;;;;;6.35;3.88;;;;;;;;;;4988017;28;20106;-68
2022/11/13 08:15:30;;;;;;;9.48;2.80;;;;;;;;;;4986877;28;20534;-68
2022/11/13 08:17:57;;;;;;;5.72;3.20;;;;;;;;;;4984161;28;20137;-68
2022/11/13 08:20:22;;;;;;;9.63;3.63;;;;;;;;;;4985372;28;20762;-68
2022/11/13 08:22:48;;;;;;;6.38;3.58;;;;;;;;;;4983688;28;20030;-68
2022/11/13 08:25:13;;;;;;;11.13;4.15;;;;;;;;;;4989142;28;20022;-68
2022/11/13 08:27:38;;;;;;;8.43;4.57;;;;;;;;;;4985423;28;20491;-68
2022/11/13 08:30:04;;;;;;;9.73;4.90;;;;;;;;;;4988218;28;20265;-68
2022/11/13 08:32:29;;;;;;;7.38;3.80;;;;;;;;;;4983608;28;20308;-69
2022/11/13 08:34:54;;;;;;;11.00;4.13;;;;;;;;;;4985646;28;20116;-68
2022/11/13 08:37:19;;;;;;;9.23;4.83;;;;;;;;;;4986959;28;20819;-68
2022/11/13 08:39:44;;;;;;;6.17;4.03;;;;;;;;;;4980501;28;20022;-68
2022/11/13 08:42:09;;;;;;;9.40;4.23;;;;;;;;;;4985663;28;20771;-68
2022/11/13 08:44:35;;;;;;;10.93;4.30;;;;;;;;;;4985414;28;20305;-68
2022/11/13 08:47:00;;;;;;;7.73;4.73;;;;;;;;;;4987708;28;20280;-68
2022/11/13 08:49:25;;;;;;;6.47;3.77;;;;;;;;;;4984469;28;20114;-68
2022/11/13 08:51:50;;;;;;;7.22;4.10;;;;;;;;;;4990209;28;20018;-69
2022/11/13 08:54:15;;;;;;;5.37;3.67;;;;;;;;;;4984456;28;20037;-68
2022/11/13 08:56:41;;;;;;;7.25;4.53;;;;;;;;;;4988690;28;20324;-69
2022/11/13 08:59:07;;;;;;;6.20;4.00;;;;;;;;;;4990440;28;20016;-69
2022/11/13 09:01:33;;;;;;;5.53;3.67;;;;;;;;;;4985195;28;20328;-69
2022/11/13 09:03:58;;;;;;;6.60;4.47;;;;;;;;;;4981750;28;20015;-71
2022/11/13 09:06:23;;;;;;;7.15;3.63;;;;;;;;;;4984878;28;20033;-70
2022/11/13 09:08:49;;;;;;;6.35;3.97;;;;;;;;;;4988824;28;20515;-70
2022/11/13 09:11:14;;;;;;;5.53;3.40;;;;;;;;;;4984152;28;20023;-70
2022/11/13 09:13:39;;;;;;;4.97;3.50;;;;;;;;;;4979986;28;20037;-71
2022/11/13 09:16:04;;;;;;;7.30;3.57;;;;;;;;;;4988977;28;20069;-70
2022/11/13 09:18:30;;;;;;;7.50;3.50;;;;;;;;;;4985247;28;20030;-72
2022/11/13 09:20:59;;;;;;;5.90;3.53;;;;;;;;;;4989820;28;20022;-70
2022/11/13 09:23:24;;;;;;;6.15;3.45;;;;;;;;;;4988538;28;20302;-70
2022/11/13 09:25:50;;;;;;;8.20;4.50;;;;;;;;;;4989356;28;20388;-70
2022/11/13 09:28:15;;;;;;;5.72;3.58;;;;;;;;;;4987251;28;20800;-70
2022/11/13 09:30:40;;;;;;;4.90;3.10;;;;;;;;;;4984402;28;20464;-71
2022/11/13 09:33:05;;;;;;;8.75;4.35;;;;;;;;;;4986357;28;20021;-69
2022/11/13 09:35:34;;;;;;;5.97;3.65;;;;;;;;;;4987608;28;20096;-71
2022/11/13 09:38:00;;;;;;;6.65;3.33;;;;;;;;;;4984802;28;20041;-71
2022/11/13 09:40:29;;;;;;;7.20;4.30;;;;;;;;;;4983567;28;20767;-71
2022/11/13 09:42:54;;;;;;;7.35;3.53;;;;;;;;;;4977915;28;20033;-70
2022/11/13 09:45:19;;;;;;;8.47;4.07;;;;;;;;;;4988865;28;20018;-71
2022/11/13 09:47:45;;;;;;;6.80;4.00;;;;;;;;;;4985310;28;20666;-71
2022/11/13 09:50:15;;;;;;;7.53;3.58;;;;;;;;;;4987990;28;20026;-70
2022/11/13 09:52:42;;;;;;;6.63;4.18;;;;;;;;;;4983441;28;20106;-69
2022/11/13 09:55:11;;;;;;;8.65;4.45;;;;;;;;;;4985470;28;20031;-71
2022/11/13 09:57:39;;;;;;;6.45;3.63;;;;;;;;;;4986220;28;20031;-71
2022/11/13 10:00:05;;;;;;;4.32;3.17;;;;;;;;;;4988863;28;20057;-71
2022/11/13 10:02:49;;;;;;;5.75;3.42;;;;;;;;;;4982749;28;20073;-70
2022/11/13 10:05:33;;;;;;;5.63;3.72;;;;;;;;;;4988123;28;20037;-70
2022/11/13 10:08:09;;;;;;;6.53;4.38;;;;;;;;;;4983326;28;20015;-71
2022/11/13 10:10:46;;;;;;;6.30;3.63;;;;;;;;;;4985879;28;20495;-72
2022/11/13 10:13:14;;;;;;;5.45;3.45;;;;;;;;;;4988024;28;20084;-69
2022/11/13 10:15:42;;;;;;;7.47;4.38;;;;;;;;;;4985157;28;20054;-71
2022/11/13 10:18:12;;;;;;;7.82;3.53;;;;;;;;;;4983147;28;20034;-68
2022/11/13 10:20:42;;;;;;;14.25;3.63;;;;;;;;;;4986297;28;20034;-70
2022/11/13 10:23:12;;;;;;;6.22;3.50;;;;;;;;;;4985416;28;20027;-71
2022/11/13 10:25:40;;;;;;;8.10;3.55;;;;;;;;;;4985766;28;20502;-70
2022/11/13 10:28:10;;;;;;;4.50;2.33;;;;;;;;;;4984132;28;20026;-71
2022/11/13 10:30:37;;;;;;;9.05;3.17;;;;;;;;;;4981753;28;20057;-70
2022/11/13 10:33:05;;;;;;;5.53;2.90;;;;;;;;;;4981397;28;20023;-70
2022/11/13 10:35:30;;;;;;;6.72;3.35;;;;;;;;;;4984559;28;20029;-71
2022/11/13 10:38:01;;;;;;;5.38;3.33;;;;;;;;;;4985138;28;20386;-71
2022/11/13 10:40:27;;;;;;;5.80;3.50;;;;;;;;;;4982677;28;20042;-71
2022/11/13 10:42:52;;;;;;;5.70;3.20;;;;;;;;;;4978371;28;20387;-71
2022/11/13 10:45:19;;;;;;;4.83;3.07;;;;;;;;;;4978615;28;20050;-70
2022/11/13 10:47:46;;;;;;;5.00;3.30;;;;;;;;;;4983310;28;20282;-70
2022/11/13 10:50:18;;;;;;;5.75;2.88;;;;;;;;;;4991459;28;20019;-71
2022/11/13 10:52:47;;;;;;;5.95;3.03;;;;;;;;;;4984623;28;20022;-71
2022/11/13 10:55:16;;;;;;;5.88;2.92;;;;;;;;;;4985993;28;20026;-71
2022/11/13 10:57:41;;;;;;;4.93;3.30;;;;;;;;;;4986193;28;20393;-71
2022/11/13 11:00:19;;;;;;;7.20;3.10;;;;;;;;;;4989417;28;20565;-69
2022/11/13 11:02:48;;;;;;;5.13;2.70;;;;;;;;;;4985912;28;20330;-71
2022/11/13 11:05:18;;;;;;;4.70;2.50;;;;;;;;;;4988027;28;20034;-71
2022/11/13 11:07:44;;;;;;;7.07;2.90;;;;;;;;;;4988146;28;20410;-71
2022/11/13 11:10:20;;;;;;;3.80;2.45;;;;;;;;;;4984448;28;20117;-70
2022/11/13 11:12:53;;;;;;;3.13;2.28;;;;;;;;;;4983254;28;20023;-68
2022/11/13 11:15:27;;;;;;;6.10;2.65;;;;;;;;;;4984792;28;20442;-71
2022/11/13 11:18:01;;;;;;;11.27;2.65;;;;;;;;;;5032020;23;20038;-69
2022/11/13 11:20:29;;;;;;;3.45;1.95;;;;;;;;;;5010046;28;20478;-69
2022/11/13 11:22:58;;;;;;;5.85;2.38;;;;;;;;;;5007348;28;20021;-69
2022/11/13 11:25:38;;;;;;;6.43;2.23;;;;;;;;;;5012264;28;20030;-70
2022/11/13 11:28:12;;;;;;;4.85;2.30;;;;;;;;;;5004968;28;20029;-69
2022/11/13 11:30:49;;;;;;;5.85;2.08;;;;;;;;;;4985094;28;20046;-69
2022/11/13 11:33:18;;;;;;;5.18;2.30;;;;;;;;;;4987912;28;20018;-68
2022/11/13 11:35:52;;;;;;;5.40;2.35;;;;;;;;;;4990435;28;20031;-69
2022/11/13 11:38:23;;;;;;;6.22;2.63;;;;;;;;;;4988348;28;20041;-70
2022/11/13 11:40:51;;;;;;;4.05;1.83;;;;;;;;;;4981317;28;20028;-69
2022/11/13 11:43:23;;;;;;;5.80;1.90;;;;;;;;;;4986710;28;20492;-69
2022/11/13 11:45:49;;;;;;;3.55;2.22;;;;;;;;;;4991008;28;20027;-68
2022/11/13 11:48:16;;;;;;;4.00;1.88;;;;;;;;;;4991574;28;20022;-70
2022/11/13 11:50:48;;;;;;;2.55;1.67;;;;;;;;;;4981820;28;20052;-70
2022/11/13 11:53:29;;;;;;;3.15;1.63;;;;;;;;;;4991786;28;20014;-70
2022/11/13 11:55:54;;;;;;;;;;;;;;;;;;4986762;28;20108;-69
2022/11/13 11:58:19;;;;;;;2.97;1.85;;;;;;;;;;4990787;28;19949;-70
2022/11/13 12:00:52;;;;;;;5.55;1.77;;;;;;;;;;4987361;28;20172;-70
2022/11/13 12:03:26;;;;;;;3.72;1.92;;;;;;;;;;4984994;28;20114;-66
2022/11/13 12:06:10;;;;;;;4.68;2.08;;;;;;;;;;4984055;28;20026;-70
2022/11/13 12:08:43;;;;;;;4.72;2.15;;;;;;;;;;4987453;28;20018;-69
2022/11/13 12:11:16;;;;;;;5.32;1.92;;;;;;;;;;4983595;28;20098;-70
2022/11/13 12:13:46;;;;;;;3.50;1.80;;;;;;;;;;4986013;28;20487;-69
2022/11/13 12:16:11;;;;;;;3.58;2.33;;;;;;;;;;4988784;28;20277;-68
2022/11/13 12:18:54;;;;;;;4.72;2.40;;;;;;;;;;4989433;28;20038;-68
2022/11/13 12:21:21;;;;;;;3.88;2.10;;;;;;;;;;4989828;28;20023;-68
2022/11/13 12:24:02;;;;;;;6.35;2.30;;;;;;;;;;4985335;28;20342;-68
2022/11/13 12:26:29;;;;;;;7.00;1.98;;;;;;;;;;4988159;28;20030;-67
2022/11/13 12:29:18;;;;;;;4.82;2.25;;;;;;;;;;4988067;28;20014;-69
2022/11/13 12:31:43;;;;;;;4.13;2.33;;;;;;;;;;4984170;28;20430;-69
2022/11/13 12:34:08;;;;;;;6.20;1.90;;;;;;;;;;4981520;28;20030;-70
2022/11/13 12:36:33;;;;;;;4.07;2.37;;;;;;;;;;4992241;28;20030;-70
2022/11/13 12:39:03;;;;;;;5.25;1.95;;;;;;;;;;4986267;28;20030;-70
2022/11/13 12:41:36;;;;;;;2.58;1.85;;;;;;;;;;4988310;28;20014;-68
2022/11/13 12:44:08;;;;;;;11.50;2.70;;;;;;;;;;4981256;28;20391;-68
2022/11/13 12:46:34;;;;;;;4.63;2.00;;;;;;;;;;4988026;28;20049;-68
2022/11/13 12:49:00;;;;;;;4.10;2.00;;;;;;;;;;4982071;28;20058;-67
2022/11/13 12:51:36;;;;;;;4.20;2.10;;;;;;;;;;4985516;28;20302;-69
2022/11/13 12:54:01;;;;;;;3.95;2.05;;;;;;;;;;4986916;28;20018;-70
2022/11/13 12:56:26;;;;;;;3.40;1.88;;;;;;;;;;4994282;28;20018;-69
2022/11/13 12:58:51;;;;;;;4.05;1.85;;;;;;;;;;4991657;28;20038;-70
2022/11/13 13:01:18;;;;;;;3.22;1.90;;;;;;;;;;4994318;28;20022;-70
2022/11/13 13:03:48;;;;;;;3.45;1.75;;;;;;;;;;4993219;28;20033;-68
2022/11/13 13:06:39;;;;;;;4.10;2.22;;;;;;;;;;4995443;28;20033;-70
2022/11/13 13:09:26;;;;;;;4.05;1.73;;;;;;;;;;4971276;28;20034;-69
2022/11/13 13:11:57;;;;;;;3.63;2.50;;;;;;;;;;4980613;28;20515;-68
2022/11/13 13:14:41;;;;;;;7.47;2.30;;;;;;;;;;4982195;28;20019;-67
2022/11/13 13:17:19;;;;;;;6.20;2.97;;;;;;;;;;4971607;28;20482;-67
2022/11/13 13:19:45;;;;;;;4.22;2.40;;;;;;;;;;4975045;28;20030;-67
2022/11/13 13:22:22;;;;;;;5.03;2.40;;;;;;;;;;4973574;28;20117;-68
2022/11/13 13:24:56;;;;;;;3.65;2.00;;;;;;;;;;4973935;28;20031;-69
2022/11/13 13:27:26;;;;;;;4.38;1.88;;;;;;;;;;4975402;28;20058;-67
2022/11/13 13:29:51;;;;;;;2.75;1.77;;;;;;;;;;4974688;28;20019;-67
2022/11/13 13:32:19;;;;;;;5.37;2.50;;;;;;;;;;4978461;28;20025;-69
2022/11/13 13:34:44;;;;;;;4.57;2.33;;;;;;;;;;4973690;28;20443;-71
2022/11/13 13:37:33;;;;;;;5.45;2.28;;;;;;;;;;4972976;28;20031;-70
2022/11/13 13:40:12;;;;;;;6.13;2.03;;;;;;;;;;4963089;28;20033;-68
2022/11/13 13:42:57;;;;;;;3.67;1.40;;;;;;;;;;4974117;28;20570;-68
2022/11/13 13:45:41;;;;;;;4.07;2.08;;;;;;;;;;4976206;28;20495;-67
2022/11/13 13:48:10;;;;;;;7.53;1.65;;;;;;;;;;4974500;28;20033;-69
2022/11/13 13:50:39;;;;;;;4.57;2.13;;;;;;;;;;4980096;28;20021;-70
2022/11/13 13:53:05;;;;;;;3.28;2.08;;;;;;;;;;4977627;28;20100;-70
2022/11/13 13:55:32;;;;;;;6.25;2.10;;;;;;;;;;4974654;28;20387;-70
2022/11/13 13:57:58;;;;;;;4.90;1.85;;;;;;;;;;4975437;28;20085;-69
2022/11/13 14:00:24;;;;;;;3.00;1.73;;;;;;;;;;4979443;28;20022;-69
2022/11/13 14:02:50;;;;;;;6.50;1.80;;;;;;;;;;4979977;28;20384;-69
2022/11/13 14:05:24;;;;;;;3.15;2.00;;;;;;;;;;4976303;28;20448;-69
2022/11/13 14:07:49;;;;;;;10.23;2.35;;;;;;;;;;4979645;28;20249;-69
2022/11/13 14:10:16;;;;;;;4.80;1.87;;;;;;;;;;4976479;28;20081;-66
2022/11/13 14:12:42;;;;;;;3.97;2.30;;;;;;;;;;4974777;28;20455;-70
2022/11/13 14:15:22;;;;;;;3.88;2.30;;;;;;;;;;4976584;28;20088;-69
2022/11/13 14:17:48;;;;;;;6.97;2.10;;;;;;;;;;4974342;28;21478;-69
2022/11/13 14:20:13;;;;;;;5.43;2.78;;;;;;;;;;4979966;28;20101;-70
2022/11/13 14:22:39;;;;;;;4.53;2.35;;;;;;;;;;4982220;28;20471;-70
2022/11/13 14:25:05;;;;;;;4.57;2.30;;;;;;;;;;4972317;28;20103;-69
2022/11/13 14:27:30;;;;;;;4.28;2.28;;;;;;;;;;4980111;28;20109;-68
2022/11/13 14:29:56;;;;;;;3.65;2.08;;;;;;;;;;4975953;28;20023;-70
2022/11/13 14:32:24;;;;;;;4.75;2.30;;;;;;;;;;4974593;28;20023;-70
2022/11/13 14:34:50;;;;;;;6.80;2.20;;;;;;;;;;4974040;28;20027;-70
2022/11/13 14:37:18;;;;;;;7.57;2.83;;;;;;;;;;4974329;28;20035;-69
2022/11/13 14:39:45;;;;;;;5.45;2.65;;;;;;;;;;4983528;28;20423;-68
2022/11/13 14:42:15;;;;;;;7.97;2.85;;;;;;;;;;4978690;28;20379;-68
2022/11/13 14:44:40;;;;;;;6.25;2.15;;;;;;;;;;4974575;28;20304;-69